Barryton, Michigan
Current Conditions -  °F | °C
As of 5:35 PM on Monday 20 Oct 2014 (Local Time) from KRQB Reporting Station
Overcast Overcast  
Wind Chill: 51°   Ceiling: 4900
Heat Index: 51°   Visibility: 10mi
Dew Point: 48°   Wind: 6mph
Humidity: 87%   Direction: 330°NNW
Pressure: 29.84"   Gusts: NA
Location:  43.75°N, 85.15°W
Report Text: KRQB 202135Z AUTO 33005KT 10SM OVC049 11/09 A2984 RMK AO2 T01080087
Loading
Personal Weather Stations






























Interactive Weather Map
Tropical Storm Tracking
New forecast layout! Learn more

10-Day Weather Forecast

Advertisements
Track Severe Weather on mobile